createdAt,value
2019-05-30T00:05:04.785Z,73.55
2019-05-30T00:10:26.564Z,73.33
2019-05-30T00:15:48.795Z,73.45
2019-05-30T00:21:10.512Z,73.52
2019-05-30T00:26:32.463Z,74.25
2019-05-30T00:31:55.480Z,73.17
2019-05-30T00:37:17.092Z,73.73
2019-05-30T00:42:39.134Z,74.10
2019-05-30T00:48:00.452Z,74.41
2019-05-30T00:53:21.969Z,74.60
2019-05-30T00:58:43.692Z,74.60
2019-05-30T01:04:05.281Z,73.25
2019-05-30T01:09:27.139Z,72.83
2019-05-30T01:14:48.785Z,72.05
2019-05-30T01:20:10.710Z,72.42
2019-05-30T01:25:32.371Z,71.08
2019-05-30T01:31:01.195Z,71.30
2019-05-30T01:36:18.309Z,70.15
2019-05-30T01:41:39.651Z,70.44
2019-05-30T01:47:02.003Z,71.72
2019-05-30T01:52:23.711Z,72.78
2019-05-30T01:57:45.412Z,73.47
2019-05-30T02:03:07.434Z,73.07
2019-05-30T02:08:29.848Z,74.84
2019-05-30T02:13:51.430Z,74.84
2019-05-30T02:19:13.204Z,75.32
2019-05-30T02:24:35.249Z,75.32
2019-05-30T02:29:56.933Z,75.43
2019-05-30T02:35:18.990Z,76.19
2019-05-30T02:40:41.111Z,77.24
2019-05-30T02:46:03.532Z,77.14
2019-05-30T02:51:26.034Z,77.34
2019-05-30T02:56:47.750Z,77.15
2019-05-30T03:02:14.644Z,76.85
2019-05-30T03:07:32.924Z,77.09
2019-05-30T03:12:54.642Z,76.69
2019-05-30T03:18:16.279Z,76.66
2019-05-30T03:23:38.165Z,76.24
2019-05-30T03:28:59.889Z,75.41
2019-05-30T03:34:27.786Z,75.41
2019-05-30T03:39:45.081Z,74.74
2019-05-30T03:45:10.694Z,73.93
2019-05-30T03:50:33.331Z,73.34
2019-05-30T03:56:01.570Z,73.34
2019-05-30T04:01:28.585Z,72.67
2019-05-30T04:06:54.586Z,72.58
2019-05-30T04:12:57.098Z,71.83
2019-05-30T04:18:19.541Z,70.65
2019-05-30T04:23:41.524Z,68.60
2019-05-30T04:29:03.067Z,68.20
2019-05-30T04:34:24.761Z,67.86
2019-05-30T04:39:46.998Z,68.12
2019-05-30T04:45:10.100Z,68.38
2019-05-30T04:50:33.479Z,69.21
2019-05-30T04:55:58.729Z,69.05
2019-05-30T05:01:22.102Z,67.28
2019-05-30T05:06:43.966Z,66.87
2019-05-30T05:12:05.624Z,67.45
2019-05-30T05:17:27.395Z,67.49
2019-05-30T05:22:48.984Z,67.81
2019-05-30T05:28:10.590Z,66.11
2019-05-30T05:33:32.489Z,66.06
2019-05-30T05:38:54.152Z,65.32
2019-05-30T05:44:16.183Z,65.68
2019-05-30T05:49:38.356Z,65.70
2019-05-30T05:55:00.096Z,65.06
2019-05-30T06:00:23.313Z,63.97
2019-05-30T06:05:52.979Z,63.95
2019-05-30T06:11:11.368Z,62.04
2019-05-30T06:16:32.963Z,61.50
2019-05-30T06:21:54.779Z,62.54
2019-05-30T06:27:17.754Z,61.88
2019-05-30T06:32:39.681Z,60.36
2019-05-30T06:38:01.218Z,58.93
2019-05-30T06:43:24.368Z,56.40
2019-05-30T06:48:46.557Z,57.73
2019-05-30T06:54:08.832Z,57.81
2019-05-30T06:59:30.448Z,58.05
2019-05-30T07:04:53.013Z,56.88
2019-05-30T07:10:15.165Z,57.00
2019-05-30T07:15:36.813Z,57.89
2019-05-30T07:20:58.247Z,58.07
2019-05-30T07:26:20.007Z,56.75
2019-05-30T07:31:41.313Z,57.67
2019-05-30T07:37:03.473Z,59.65
2019-05-30T07:42:24.922Z,58.35
2019-05-30T07:47:46.466Z,59.61
2019-05-30T07:53:08.312Z,58.79
2019-05-30T07:58:29.646Z,58.10
2019-05-30T08:03:51.516Z,58.00
2019-05-30T08:09:12.977Z,57.72
2019-05-30T08:14:35.374Z,56.89
2019-05-30T08:19:56.698Z,56.92
2019-05-30T08:25:18.446Z,55.76
2019-05-30T08:30:40.017Z,55.23
2019-05-30T08:36:05.553Z,54.85
2019-05-30T08:41:25.824Z,55.04
2019-05-30T08:46:47.906Z,54.86
2019-05-30T08:52:09.860Z,54.18
2019-05-30T08:57:32.336Z,52.58
2019-05-30T09:02:54.475Z,51.22
2019-05-30T09:08:16.256Z,51.76
2019-05-30T09:13:38.899Z,50.65
2019-05-30T09:19:00.947Z,49.77
2019-05-30T09:24:22.472Z,48.85
2019-05-30T09:29:44.715Z,49.87
2019-05-30T09:35:07.100Z,49.20
2019-05-30T09:40:30.277Z,48.56
2019-05-30T09:45:52.009Z,47.56
2019-05-30T09:51:13.953Z,47.43
2019-05-30T09:56:35.361Z,46.46
2019-05-30T10:01:57.030Z,47.70
2019-05-30T10:07:18.894Z,44.92
2019-05-30T10:12:40.658Z,45.05
2019-05-30T10:18:02.191Z,45.38
2019-05-30T10:23:24.008Z,45.64
2019-05-30T10:28:46.424Z,44.04
2019-05-30T10:34:09.532Z,42.80
2019-05-30T10:39:31.307Z,41.71
2019-05-30T10:44:54.565Z,41.97
2019-05-30T10:50:17.108Z,41.82
2019-05-30T10:55:38.979Z,41.28
2019-05-30T11:01:00.703Z,40.83
2019-05-30T11:07:04.850Z,40.05
2019-05-30T11:12:11.685Z,41.55
2019-05-30T11:17:33.411Z,41.90
2019-05-30T11:22:56.372Z,42.49
2019-05-30T11:28:18.435Z,40.72
2019-05-30T11:33:40.371Z,41.33
2019-05-30T11:39:02.051Z,42.26
2019-05-30T11:44:23.891Z,43.30
2019-05-30T11:49:45.430Z,42.06
2019-05-30T11:55:07.352Z,41.90
2019-05-30T12:00:28.990Z,41.85
2019-05-30T12:05:51.020Z,42.62
2019-05-30T12:11:12.969Z,42.59
2019-05-30T12:16:34.723Z,41.51
2019-05-30T12:21:57.671Z,42.66
2019-05-30T12:27:19.191Z,40.45
2019-05-30T12:32:40.597Z,40.69
2019-05-30T12:38:05.958Z,41.46
2019-05-30T12:43:25.972Z,40.46
2019-05-30T12:48:49.033Z,38.52
2019-05-30T12:54:10.755Z,38.51
2019-05-30T12:59:32.294Z,36.69
2019-05-30T13:04:54.729Z,35.61
2019-05-30T13:10:18.189Z,34.89
2019-05-30T13:15:39.790Z,34.58
2019-05-30T13:21:02.167Z,33.97
2019-05-30T13:26:24.100Z,33.74
2019-05-30T13:31:45.853Z,32.81
2019-05-30T13:37:07.359Z,34.00
2019-05-30T13:42:28.844Z,33.22
2019-05-30T13:47:50.668Z,31.42
2019-05-30T13:53:12.223Z,34.38
2019-05-30T13:58:33.808Z,36.94
2019-05-30T14:03:55.517Z,39.87
2019-05-30T14:09:17.137Z,40.16
2019-05-30T14:14:39.007Z,43.31
2019-05-30T14:20:01.106Z,46.71
2019-05-30T14:25:22.882Z,45.70
2019-05-30T14:30:44.540Z,46.46
2019-05-30T14:36:10.209Z,48.08
2019-05-30T14:41:30.779Z,48.16
2019-05-30T14:46:52.523Z,48.29
2019-05-30T14:52:14.270Z,47.42
2019-05-30T14:57:41.437Z,48.97
2019-05-30T15:03:03.265Z,46.52
2019-05-30T15:08:25.112Z,46.70
2019-05-30T15:13:46.427Z,46.95
2019-05-30T15:19:08.127Z,47.58
2019-05-30T15:24:30.067Z,45.84
2019-05-30T15:29:51.707Z,45.82
2019-05-30T15:35:15.202Z,43.93
2019-05-30T15:40:37.029Z,43.16
2019-05-30T15:45:58.837Z,44.08
2019-05-30T15:51:21.462Z,44.03
2019-05-30T15:56:43.530Z,42.97
2019-05-30T16:02:05.434Z,44.54
2019-05-30T16:07:27.234Z,44.71
2019-05-30T16:12:48.959Z,45.48
2019-05-30T16:18:11.620Z,47.23
2019-05-30T16:23:33.478Z,46.63
2019-05-30T16:28:55.476Z,47.74
2019-05-30T16:34:18.063Z,47.58
2019-05-30T16:39:42.792Z,48.50
2019-05-30T16:45:06.119Z,48.47
2019-05-30T16:50:27.619Z,49.85
2019-05-30T16:55:49.648Z,51.92
2019-05-30T17:01:11.269Z,53.55
2019-05-30T17:06:32.589Z,54.44
2019-05-30T17:11:54.588Z,55.26
2019-05-30T17:17:16.347Z,55.14
2019-05-30T17:22:38.702Z,55.69
2019-05-30T17:28:00.034Z,56.34
2019-05-30T17:33:23.423Z,56.90
2019-05-30T17:38:46.365Z,57.51
2019-05-30T17:44:08.033Z,57.82
2019-05-30T17:49:30.032Z,58.33
2019-05-30T17:54:51.891Z,58.92
2019-05-30T18:00:14.763Z,59.05
2019-05-30T18:05:37.329Z,59.29
2019-05-30T18:10:59.303Z,59.28
2019-05-30T18:16:21.118Z,59.94
2019-05-30T18:21:42.960Z,60.23
2019-05-30T18:27:04.755Z,60.77
2019-05-30T18:32:26.394Z,60.84
2019-05-30T18:37:48.237Z,61.14
2019-05-30T18:43:10.174Z,61.92
2019-05-30T18:48:31.921Z,62.23
2019-05-30T18:53:53.631Z,60.89
2019-05-30T18:59:15.495Z,61.46
2019-05-30T19:04:37.123Z,61.63
2019-05-30T19:09:58.953Z,61.81
2019-05-30T19:15:21.073Z,62.69
2019-05-30T19:20:42.806Z,63.15
2019-05-30T19:26:04.758Z,62.84
2019-05-30T19:31:26.448Z,62.70
2019-05-30T19:36:48.140Z,63.73
2019-05-30T19:42:10.194Z,63.47
2019-05-30T19:47:32.375Z,64.31
2019-05-30T19:52:53.853Z,63.62
2019-05-30T19:58:15.518Z,63.31
2019-05-30T20:03:43.586Z,63.44
2019-05-30T20:09:00.938Z,64.43
2019-05-30T20:14:22.324Z,64.56
2019-05-30T20:19:44.058Z,64.25
2019-05-30T20:25:05.987Z,63.98
2019-05-30T20:30:27.808Z,63.82
2019-05-30T20:35:49.366Z,64.84
2019-05-30T20:41:11.114Z,65.51
2019-05-30T20:46:32.742Z,65.89
2019-05-30T20:51:54.387Z,66.90
2019-05-30T20:57:15.981Z,68.12
2019-05-30T21:02:38.756Z,68.38
2019-05-30T21:08:05.670Z,68.45
2019-05-30T21:13:29.146Z,67.88
2019-05-30T21:18:52.253Z,67.53
2019-05-30T21:24:13.960Z,67.65
2019-05-30T21:29:36.677Z,68.14
2019-05-30T21:34:58.549Z,68.96
2019-05-30T21:40:20.089Z,69.04
2019-05-30T21:45:42.516Z,68.89
2019-05-30T21:51:03.982Z,69.01
2019-05-30T21:56:26.888Z,69.23
2019-05-30T22:01:54.832Z,69.97
2019-05-30T22:07:12.473Z,69.64
2019-05-30T22:12:34.405Z,69.30
2019-05-30T22:17:56.130Z,69.50
2019-05-30T22:23:17.783Z,69.37
2019-05-30T22:28:39.415Z,68.84
2019-05-30T22:34:01.280Z,69.68
2019-05-30T22:39:22.586Z,69.62
2019-05-30T22:44:44.465Z,69.76
2019-05-30T22:50:06.268Z,69.25
2019-05-30T22:55:28.268Z,68.42
2019-05-30T23:00:50.040Z,68.51
2019-05-30T23:06:11.957Z,68.25
2019-05-30T23:11:33.552Z,68.55
2019-05-30T23:16:56.405Z,67.15
2019-05-30T23:22:17.899Z,63.14
2019-05-30T23:27:39.500Z,60.93
2019-05-30T23:33:01.512Z,60.80
2019-05-30T23:38:23.127Z,61.28
2019-05-30T23:43:56.611Z,60.87
2019-05-30T23:49:08.620Z,62.07
2019-05-30T23:54:29.971Z,63.12
2019-05-30T23:59:52.729Z,64.50
